createdAt,value
2022-10-30T09:26:36.899Z,11.20
2022-10-30T10:04:37.903Z,12.45
2022-10-30T10:07:31.879Z,12.60
2022-10-30T10:10:05.386Z,12.72
2022-10-30T10:12:40.749Z,12.81
2022-10-30T10:15:31.926Z,12.92
2022-10-30T10:18:02.774Z,13.03
2022-10-30T10:20:35.265Z,13.11
2022-10-30T10:23:11.934Z,13.19
2022-10-30T10:25:43.912Z,13.27
2022-10-30T10:28:36.854Z,13.36
2022-10-30T10:31:21.731Z,13.54
2022-10-30T10:34:19.429Z,13.68
2022-10-30T10:37:04.824Z,13.79
2022-10-30T10:39:31.479Z,13.89
2022-10-30T10:42:21.912Z,13.99
2022-10-30T10:44:54.513Z,14.11
2022-10-30T10:47:54.552Z,14.22
2022-10-30T10:50:34.203Z,14.35
2022-10-30T10:53:09.380Z,14.46
2022-10-30T10:55:39.173Z,14.58
2022-10-30T10:58:26.388Z,14.67
2022-10-30T11:00:56.206Z,14.76
2022-10-30T11:03:36.864Z,14.83
2022-10-30T11:06:26.919Z,14.89
2022-10-30T11:09:01.701Z,14.93
2022-10-30T11:11:28.619Z,14.96
2022-10-30T11:13:56.294Z,14.99
2022-10-30T11:17:10.965Z,15.02
2022-10-30T11:19:37.833Z,15.04
2022-10-30T11:22:21.398Z,15.09
2022-10-30T11:24:48.052Z,15.15
2022-10-30T11:27:24.025Z,15.21
2022-10-30T11:29:54.818Z,15.29
2022-10-30T11:32:26.639Z,15.37
2022-10-30T11:35:08.773Z,15.48
2022-10-30T11:37:38.621Z,15.59
2022-10-30T11:40:05.588Z,15.70
2022-10-30T11:42:32.893Z,15.82
2022-10-30T11:45:00.837Z,15.94
2022-10-30T11:50:06.463Z,16.21
2022-10-30T11:52:40.953Z,16.34
2022-10-30T11:55:26.551Z,16.47
2022-10-30T11:57:57.444Z,16.60
2022-10-30T12:00:27.640Z,16.71
2022-10-30T12:02:57.221Z,16.84
2022-10-30T12:05:27.446Z,16.95
2022-10-30T12:08:11.080Z,17.06
2022-10-30T12:10:46.302Z,17.18
2022-10-30T12:13:18.571Z,17.28
2022-10-30T12:15:48.571Z,17.37
2022-10-30T12:18:25.907Z,17.47
2022-10-30T12:20:56.460Z,17.57
2022-10-30T12:23:26.081Z,17.64
2022-10-30T12:25:55.542Z,17.70
2022-10-30T12:28:29.573Z,17.76
2022-10-30T12:31:05.330Z,17.80
2022-10-30T12:33:39.619Z,17.86
2022-10-30T12:36:22.985Z,17.91
2022-10-30T12:38:56.622Z,17.96
2022-10-30T12:41:29.565Z,18.00
2022-10-30T12:44:19.637Z,18.04
2022-10-30T12:46:48.932Z,18.09
2022-10-30T12:49:42.234Z,18.12
2022-10-30T12:52:33.643Z,18.18
2022-10-30T12:55:18.728Z,18.24
2022-10-30T12:58:02.846Z,18.29
2022-10-30T13:00:37.111Z,18.34
2022-10-30T13:03:28.273Z,18.40
2022-10-30T13:05:57.743Z,18.45
2022-10-30T13:08:51.195Z,18.49
2022-10-30T13:11:49.178Z,18.53
2022-10-30T13:15:06.151Z,18.56
2022-10-30T13:17:32.879Z,18.62
2022-10-30T13:20:01.243Z,18.67
2022-10-30T13:22:46.885Z,18.70
2022-10-30T13:25:22.260Z,18.74
2022-10-30T13:27:56.617Z,18.75
2022-10-30T13:30:29.855Z,18.77
2022-10-30T13:33:19.954Z,18.80
2022-10-30T13:35:58.474Z,18.83
2022-10-30T13:38:40.389Z,18.85
2022-10-30T13:41:19.424Z,18.86
2022-10-30T13:44:24.934Z,18.88
2022-10-30T13:47:16.621Z,18.88
2022-10-30T13:50:01.134Z,18.89
2022-10-30T13:52:30.718Z,18.90
2022-10-30T13:55:03.430Z,18.86
2022-10-30T13:57:42.786Z,18.83
2022-10-30T14:00:19.640Z,18.78
2022-10-30T14:41:41.073Z,18.28
2022-10-30T14:44:24.983Z,18.24
2022-10-30T14:47:18.002Z,18.20
2022-10-30T14:50:31.772Z,18.16
2022-10-30T15:16:41.288Z,17.80
2022-10-30T15:23:04.126Z,17.76
2022-10-30T15:25:46.078Z,17.75
2022-10-30T15:28:20.411Z,17.73
2022-10-30T15:31:20.978Z,17.72
2022-10-30T15:33:47.771Z,17.70
2022-10-30T15:36:23.381Z,17.69
2022-10-30T15:39:18.680Z,17.69
2022-10-30T15:41:45.379Z,17.66
2022-10-30T15:44:33.776Z,17.64
2022-10-30T15:47:02.688Z,17.61
2022-10-30T15:49:33.275Z,17.59
2022-10-30T15:52:04.841Z,17.57
2022-10-30T15:54:33.639Z,17.54
2022-10-30T15:57:36.557Z,17.50
2022-10-30T16:00:00.191Z,17.44
2022-10-30T16:02:51.039Z,17.38
2022-10-30T16:05:23.164Z,17.33
2022-10-30T16:07:52.729Z,17.28
2022-10-30T16:10:19.474Z,17.24
2022-10-30T16:12:46.421Z,17.20
2022-10-30T16:15:39.207Z,17.16
2022-10-30T16:18:18.889Z,17.10
2022-10-30T16:20:50.343Z,17.05
2022-10-30T16:23:59.724Z,17.01
2022-10-30T16:26:37.733Z,16.97
2022-10-30T16:29:23.034Z,16.96
2022-10-30T16:31:50.482Z,17.00
2022-10-30T16:34:38.700Z,17.04
2022-10-30T16:37:07.104Z,17.09
2022-10-30T16:39:35.032Z,17.10
2022-10-30T16:42:18.720Z,17.11
2022-10-30T16:44:46.430Z,17.11
2022-10-30T16:47:19.154Z,17.12
2022-10-30T16:49:57.336Z,17.12
2022-10-30T16:52:32.668Z,17.13
2022-10-30T16:54:59.349Z,17.14
2022-10-30T16:57:31.397Z,17.15
2022-10-30T17:00:00.847Z,17.12
2022-10-30T17:02:32.759Z,17.09
2022-10-30T17:05:27.860Z,17.04
2022-10-30T17:08:00.207Z,16.98
2022-10-30T17:10:42.880Z,16.94
2022-10-30T17:13:37.723Z,16.90
2022-10-30T17:16:23.410Z,16.86
2022-10-30T17:19:00.002Z,16.83
2022-10-30T17:21:36.864Z,16.80
2022-10-30T17:24:04.228Z,16.77
2022-10-30T17:26:41.449Z,16.75
2022-10-30T17:29:38.539Z,16.73
2022-10-30T17:32:12.425Z,16.69
2022-10-30T17:34:39.324Z,16.65
2022-10-30T17:37:06.173Z,16.62
2022-10-30T17:39:33.507Z,16.61
2022-10-30T17:42:02.362Z,16.59
2022-10-30T17:44:33.217Z,16.57
2022-10-30T17:47:09.296Z,16.54
2022-10-30T17:49:42.701Z,16.51
2022-10-30T17:52:19.425Z,16.48
2022-10-30T17:54:46.192Z,16.44
2022-10-30T17:57:15.190Z,16.39
2022-10-30T17:59:44.769Z,16.36
2022-10-30T18:02:20.769Z,16.34
2022-10-30T18:04:48.570Z,16.32
2022-10-30T18:07:17.189Z,16.28
2022-10-30T18:09:47.094Z,16.25
2022-10-30T18:12:17.060Z,16.20
2022-10-30T18:14:45.834Z,16.17
2022-10-30T18:17:12.544Z,16.13
2022-10-30T18:19:39.360Z,16.10
2022-10-30T18:22:06.416Z,16.12
2022-10-30T18:24:33.219Z,16.16
2022-10-30T18:27:00.011Z,16.20
2022-10-30T18:29:26.735Z,16.24
2022-10-30T18:31:53.481Z,16.26
2022-10-30T18:34:21.838Z,16.28
2022-10-30T18:36:49.048Z,16.28
2022-10-30T18:39:15.899Z,16.29
2022-10-30T18:41:45.331Z,16.27
2022-10-30T18:44:15.221Z,16.26
2022-10-30T18:46:42.294Z,16.20
2022-10-30T18:49:09.079Z,16.12
2022-10-30T18:51:35.941Z,16.04
2022-10-30T18:54:02.950Z,15.95
2022-10-30T18:56:32.850Z,15.87
2022-10-30T18:59:13.159Z,15.77
2022-10-30T19:01:59.251Z,15.68
2022-10-30T19:04:26.028Z,15.60
2022-10-30T19:06:52.715Z,15.54
2022-10-30T19:09:19.533Z,15.50
2022-10-30T19:11:46.344Z,15.45
2022-10-30T19:14:14.069Z,15.40
2022-10-30T19:16:41.023Z,15.35
2022-10-30T19:19:07.924Z,15.31
2022-10-30T19:21:35.520Z,15.29
2022-10-30T19:24:03.278Z,15.30
2022-10-30T19:26:30.105Z,15.31
2022-10-30T19:28:56.816Z,15.32
2022-10-30T19:31:32.926Z,15.33
2022-10-30T19:33:59.672Z,15.33
2022-10-30T19:36:30.132Z,15.31
2022-10-30T19:38:56.941Z,15.32
2022-10-30T19:41:25.096Z,15.35
2022-10-30T19:43:53.358Z,15.36
